createdAt,value
2022-11-25T00:01:26.059Z,23.63
2022-11-25T00:04:11.343Z,23.92
2022-11-25T00:06:56.669Z,22.80
2022-11-25T00:09:42.169Z,23.17
2022-11-25T00:12:27.575Z,23.45
2022-11-25T00:15:13.019Z,24.17
2022-11-25T00:17:58.095Z,24.02
2022-11-25T00:20:43.570Z,25.25
2022-11-25T00:23:33.114Z,23.60
2022-11-25T00:26:19.488Z,22.88
2022-11-25T00:29:06.752Z,24.77
2022-11-25T00:31:54.138Z,25.10
2022-11-25T00:34:39.465Z,25.33
2022-11-25T00:37:26.439Z,26.77
2022-11-25T00:40:12.551Z,27.83
2022-11-25T00:43:16.336Z,27.88
2022-11-25T00:46:01.709Z,28.48
2022-11-25T00:48:46.910Z,26.70
2022-11-25T00:51:31.966Z,28.70
2022-11-25T00:54:17.492Z,28.45
2022-11-25T00:57:02.658Z,28.60
2022-11-25T00:59:49.222Z,29.35
2022-11-25T01:02:34.752Z,29.08
2022-11-25T01:05:20.209Z,30.15
2022-11-25T01:08:05.565Z,30.88
2022-11-25T01:10:58.574Z,32.65
2022-11-25T01:13:43.841Z,31.40
2022-11-25T01:16:30.003Z,31.88
2022-11-25T01:19:16.237Z,31.58
2022-11-25T01:22:01.610Z,32.45
2022-11-25T01:24:47.093Z,32.35
2022-11-25T01:27:33.270Z,32.90
2022-11-25T01:30:18.722Z,32.08
2022-11-25T01:33:03.911Z,30.42
2022-11-25T01:35:49.220Z,32.33
2022-11-25T01:38:35.364Z,34.00
2022-11-25T01:41:21.916Z,32.60
2022-11-25T01:44:12.342Z,31.42
2022-11-25T01:47:03.306Z,32.42
2022-11-25T01:50:02.422Z,32.08
2022-11-25T01:52:53.174Z,32.10
2022-11-25T01:55:42.825Z,31.75
2022-11-25T01:58:36.507Z,33.20
2022-11-25T02:01:22.460Z,31.25
2022-11-25T02:04:10.621Z,31.63
2022-11-25T02:07:03.646Z,30.10
2022-11-25T02:09:50.486Z,32.00
2022-11-25T02:12:38.697Z,31.67
2022-11-25T02:15:24.529Z,30.65
2022-11-25T02:18:10.116Z,30.42
2022-11-25T02:20:55.222Z,30.77
2022-11-25T02:23:59.040Z,31.45
2022-11-25T02:26:44.666Z,29.88
2022-11-25T02:29:30.239Z,30.38
2022-11-25T02:32:16.052Z,29.77
2022-11-25T02:35:01.156Z,30.63
2022-11-25T02:37:46.515Z,31.20
2022-11-25T02:40:36.318Z,30.25
2022-11-25T02:43:22.052Z,29.08
2022-11-25T02:46:11.073Z,28.30
2022-11-25T02:52:00.518Z,28.83
2022-11-25T02:54:47.641Z,29.17
2022-11-25T02:57:33.748Z,28.17
2022-11-25T03:00:19.559Z,28.52
2022-11-25T03:03:05.473Z,25.48
2022-11-25T03:05:50.754Z,26.33
2022-11-25T03:08:36.821Z,27.10
2022-11-25T03:11:45.708Z,26.77
2022-11-25T03:14:32.185Z,24.52
2022-11-25T03:17:17.528Z,25.55
2022-11-25T03:20:04.738Z,25.50
2022-11-25T03:22:50.742Z,24.92
2022-11-25T03:25:36.333Z,26.15
2022-11-25T03:28:23.189Z,24.95
2022-11-25T03:31:12.163Z,25.38
2022-11-25T03:33:57.833Z,26.17
2022-11-25T03:36:43.198Z,26.80
2022-11-25T03:39:29.444Z,26.65
2022-11-25T03:42:14.837Z,27.33
2022-11-25T03:45:01.081Z,27.08
2022-11-25T03:47:46.586Z,26.65
2022-11-25T03:50:31.968Z,26.00
2022-11-25T03:53:17.319Z,25.98
2022-11-25T03:56:02.961Z,24.10
2022-11-25T03:58:48.745Z,26.50
2022-11-25T04:01:41.489Z,25.23
2022-11-25T04:04:29.393Z,26.35
2022-11-25T04:07:14.676Z,26.33
2022-11-25T04:09:59.970Z,27.85
2022-11-25T04:12:48.233Z,27.13
2022-11-25T04:15:46.519Z,25.92
2022-11-25T04:18:32.420Z,27.42
2022-11-25T04:21:18.666Z,25.80
2022-11-25T04:24:03.797Z,25.48
2022-11-25T04:26:48.999Z,26.00
2022-11-25T04:29:34.339Z,24.90
2022-11-25T04:32:22.299Z,25.20
2022-11-25T04:35:08.397Z,24.27
2022-11-25T04:37:54.595Z,25.63
2022-11-25T04:40:41.101Z,25.63
2022-11-25T04:43:36.146Z,23.80
2022-11-25T04:46:40.875Z,24.30
2022-11-25T04:49:26.403Z,26.10
2022-11-25T04:52:11.877Z,25.50
2022-11-25T04:54:57.453Z,25.10
2022-11-25T04:57:42.558Z,25.58
2022-11-25T05:00:28.785Z,24.10
2022-11-25T05:03:15.715Z,23.85
2022-11-25T05:06:06.726Z,24.10
2022-11-25T05:08:53.741Z,24.25
2022-11-25T05:11:41.551Z,25.45
2022-11-25T05:14:26.950Z,27.52
2022-11-25T05:17:18.411Z,26.98
2022-11-25T05:20:04.768Z,25.52
2022-11-25T05:22:52.313Z,27.47
2022-11-25T05:25:40.449Z,26.63
2022-11-25T05:28:43.822Z,25.52
2022-11-25T05:31:30.355Z,28.98
2022-11-25T05:34:16.073Z,26.27
2022-11-25T05:37:02.747Z,26.67
2022-11-25T05:39:49.537Z,26.65
2022-11-25T05:42:43.663Z,24.52
2022-11-25T05:45:29.114Z,26.90
2022-11-25T05:48:16.035Z,24.85
2022-11-25T05:51:03.332Z,26.63
2022-11-25T05:53:49.835Z,24.67
2022-11-25T05:56:37.698Z,27.60
2022-11-25T05:59:46.046Z,26.10
2022-11-25T06:02:40.607Z,24.55
2022-11-25T06:05:27.315Z,24.45
2022-11-25T06:08:12.436Z,25.17
2022-11-25T06:10:58.187Z,23.70
2022-11-25T06:13:44.674Z,23.02
2022-11-25T06:16:30.429Z,21.17
2022-11-25T06:19:26.502Z,22.00
2022-11-25T06:22:12.024Z,23.17
2022-11-25T06:25:03.100Z,24.48
2022-11-25T06:28:11.835Z,24.35
2022-11-25T06:30:56.278Z,23.45
2022-11-25T06:33:54.733Z,23.67
2022-11-25T06:36:40.040Z,24.55
2022-11-25T06:39:25.479Z,24.83
2022-11-25T06:42:11.228Z,25.40
2022-11-25T06:44:56.173Z,25.13
2022-11-25T06:47:41.611Z,25.55
2022-11-25T06:50:27.002Z,25.58
2022-11-25T06:53:12.027Z,25.63
2022-11-25T06:56:05.294Z,24.77
2022-11-25T06:58:51.761Z,24.92
2022-11-25T07:01:37.114Z,24.70
2022-11-25T07:04:22.174Z,24.98
2022-11-25T07:07:07.688Z,24.27
2022-11-25T07:09:52.789Z,24.50
2022-11-25T07:12:38.419Z,24.30
2022-11-25T07:15:23.655Z,24.85
2022-11-25T07:18:09.129Z,24.17
2022-11-25T07:20:54.444Z,26.17
2022-11-25T07:23:40.562Z,25.77
2022-11-25T07:26:28.896Z,26.60
2022-11-25T07:32:22.631Z,24.90
2022-11-25T07:35:08.269Z,25.58
2022-11-25T07:37:53.568Z,25.20
2022-11-25T07:40:39.221Z,25.35
2022-11-25T07:43:24.707Z,27.00
2022-11-25T07:46:13.262Z,26.55
2022-11-25T07:49:02.020Z,24.75
2022-11-25T07:51:53.680Z,25.70
2022-11-25T07:54:38.808Z,26.13
2022-11-25T07:57:24.294Z,25.23
2022-11-25T08:00:10.320Z,25.13
2022-11-25T08:02:59.834Z,26.47
2022-11-25T08:05:45.381Z,23.98
2022-11-25T08:08:30.560Z,23.48
2022-11-25T08:11:22.476Z,23.15
2022-11-25T08:14:08.591Z,24.83
2022-11-25T08:16:54.332Z,24.65
2022-11-25T08:19:40.241Z,25.42
2022-11-25T08:22:25.578Z,23.60
2022-11-25T08:25:10.688Z,24.10
2022-11-25T08:27:55.903Z,24.50
2022-11-25T08:30:41.466Z,24.40
2022-11-25T08:33:26.787Z,23.80
2022-11-25T08:36:12.561Z,24.42
2022-11-25T08:38:59.958Z,23.60
2022-11-25T08:41:45.211Z,23.85
2022-11-25T08:44:30.714Z,23.65
2022-11-25T08:47:15.662Z,23.48
2022-11-25T08:50:01.368Z,21.98
2022-11-25T08:52:46.340Z,23.65
2022-11-25T08:55:32.665Z,22.63
2022-11-25T08:58:18.248Z,22.10
2022-11-25T09:01:04.784Z,20.42
2022-11-25T09:03:53.091Z,21.67
2022-11-25T09:06:38.869Z,22.23
2022-11-25T09:09:24.102Z,22.17
2022-11-25T09:12:09.768Z,23.40
2022-11-25T09:14:55.146Z,23.23
2022-11-25T09:17:40.492Z,24.38
2022-11-25T09:20:27.311Z,23.23
2022-11-25T09:23:13.078Z,24.80
2022-11-25T09:25:59.321Z,23.02
2022-11-25T09:28:44.712Z,26.58
2022-11-25T09:31:30.419Z,24.00
2022-11-25T09:34:15.536Z,23.27
2022-11-25T09:37:01.045Z,22.80
2022-11-25T09:39:46.141Z,22.92
2022-11-25T09:43:08.355Z,22.02
2022-11-25T09:46:18.376Z,22.70
2022-11-25T09:49:18.774Z,23.95
2022-11-25T09:52:04.363Z,24.55
2022-11-25T09:55:02.774Z,24.10
2022-11-25T09:58:03.333Z,23.67
2022-11-25T10:00:51.443Z,23.83
2022-11-25T10:03:43.221Z,21.40
2022-11-25T10:06:31.875Z,21.15
2022-11-25T10:09:23.833Z,20.75
2022-11-25T10:12:27.681Z,20.83
2022-11-25T10:15:21.066Z,21.85
2022-11-25T10:18:24.636Z,25.05
2022-11-25T10:21:11.587Z,24.00
2022-11-25T10:23:57.281Z,25.55
2022-11-25T10:26:45.279Z,25.63
2022-11-25T10:29:31.253Z,24.70
2022-11-25T10:32:24.436Z,25.30
2022-11-25T10:35:21.233Z,24.13
2022-11-25T10:38:19.030Z,27.73
2022-11-25T10:41:05.984Z,27.02
2022-11-25T10:43:51.599Z,27.85
2022-11-25T10:47:11.781Z,27.05
2022-11-25T10:50:19.771Z,29.92
2022-11-25T10:53:15.833Z,26.25
2022-11-25T10:56:04.559Z,27.20
2022-11-25T10:58:49.635Z,27.85
2022-11-25T11:01:35.356Z,27.55
2022-11-25T11:04:21.115Z,26.30
2022-11-25T11:07:09.390Z,27.63
2022-11-25T11:09:54.848Z,29.30
2022-11-25T11:12:59.031Z,30.13
2022-11-25T11:15:47.333Z,30.30
2022-11-25T11:18:38.837Z,29.00
2022-11-25T11:21:29.071Z,28.90
2022-11-25T11:24:35.712Z,29.98
2022-11-25T11:27:23.675Z,35.85
2022-11-25T11:30:15.586Z,31.02
2022-11-25T11:33:07.276Z,29.33
2022-11-25T11:36:09.897Z,26.40
2022-11-25T11:39:11.710Z,24.85
2022-11-25T11:42:14.006Z,22.38
2022-11-25T11:45:24.388Z,22.45
2022-11-25T11:48:13.265Z,26.92
2022-11-25T11:51:30.475Z,25.13
2022-11-25T11:54:23.969Z,25.90
2022-11-25T11:57:54.175Z,26.25
2022-11-25T12:00:58.015Z,23.75
2022-11-25T12:03:58.455Z,23.05
2022-11-25T12:06:53.792Z,24.13
2022-11-25T12:09:48.282Z,22.83
2022-11-25T12:13:01.990Z,22.02
2022-11-25T12:16:09.086Z,24.80
2022-11-25T12:19:21.016Z,25.45
2022-11-25T12:22:06.136Z,27.20
2022-11-25T12:25:13.935Z,26.48
2022-11-25T12:28:07.057Z,24.85
2022-11-25T12:31:05.309Z,25.52
2022-11-25T12:34:04.116Z,25.08
2022-11-25T12:36:49.725Z,26.77
2022-11-25T12:39:45.561Z,27.73
2022-11-25T12:42:33.512Z,27.60
2022-11-25T12:45:22.887Z,30.33
2022-11-25T12:48:11.799Z,29.77
2022-11-25T12:51:00.157Z,28.92
2022-11-25T12:54:17.642Z,27.83
2022-11-25T12:57:45.821Z,28.58
2022-11-25T13:01:07.118Z,27.70
2022-11-25T13:04:18.454Z,27.90
2022-11-25T13:07:33.296Z,27.77
2022-11-25T13:10:30.848Z,27.65
2022-11-25T13:13:55.188Z,28.20
2022-11-25T13:16:43.239Z,27.77
2022-11-25T13:19:29.153Z,28.15
2022-11-25T13:22:20.566Z,27.33
2022-11-25T13:25:24.497Z,30.33
2022-11-25T13:28:37.491Z,28.15
2022-11-25T13:31:24.260Z,29.15
2022-11-25T13:34:18.873Z,31.35
2022-11-25T13:37:43.322Z,30.48
2022-11-25T13:40:32.063Z,35.03
2022-11-25T13:43:22.496Z,33.67
2022-11-25T13:46:08.238Z,35.70
2022-11-25T13:48:53.696Z,34.55
2022-11-25T13:51:49.959Z,34.80
2022-11-25T13:54:43.497Z,33.97
2022-11-25T13:57:31.677Z,35.40
2022-11-25T14:00:20.091Z,36.05
2022-11-25T14:03:20.854Z,36.58
2022-11-25T14:06:32.539Z,36.28
2022-11-25T14:09:49.249Z,35.97
2022-11-25T14:13:16.578Z,38.70
2022-11-25T14:16:33.004Z,36.60
2022-11-25T14:19:50.687Z,38.92
2022-11-25T14:23:01.594Z,34.33
2022-11-25T14:25:53.574Z,34.70
2022-11-25T14:28:57.834Z,33.35
2022-11-25T14:31:47.168Z,34.15
2022-11-25T14:34:44.385Z,32.85
2022-11-25T14:37:46.266Z,30.92
2022-11-25T14:40:57.096Z,30.35
2022-11-25T14:43:48.819Z,30.15
2022-11-25T14:46:35.091Z,30.13
2022-11-25T14:52:36.471Z,29.25
2022-11-25T14:55:31.327Z,31.20
2022-11-25T14:58:17.530Z,31.17
2022-11-25T15:01:08.671Z,30.88
2022-11-25T15:04:04.871Z,30.95
2022-11-25T15:07:01.175Z,31.42
2022-11-25T15:10:03.393Z,31.90
2022-11-25T15:14:05.262Z,33.33
2022-11-25T15:16:57.896Z,31.80
2022-11-25T15:19:47.829Z,32.80
2022-11-25T15:22:34.018Z,34.22
2022-11-25T15:25:20.611Z,34.75
2022-11-25T15:28:21.371Z,32.15
2022-11-25T15:31:12.913Z,33.40
2022-11-25T15:34:07.722Z,33.85
2022-11-25T15:41:15.489Z,34.58
2022-11-25T15:44:04.105Z,34.80
2022-11-25T15:46:57.701Z,33.28
2022-11-25T15:49:49.212Z,33.13
2022-11-25T15:52:41.033Z,33.20
2022-11-25T15:55:39.818Z,36.15
2022-11-25T15:58:26.241Z,35.63
2022-11-25T16:01:18.156Z,33.20
2022-11-25T16:04:19.270Z,33.45
2022-11-25T16:07:23.570Z,33.08
2022-11-25T16:10:24.284Z,34.13
2022-11-25T16:13:23.041Z,32.47
2022-11-25T16:16:13.102Z,33.35
2022-11-25T16:19:01.962Z,34.88
2022-11-25T16:21:53.051Z,33.80
2022-11-25T16:24:50.674Z,33.88
2022-11-25T16:27:38.196Z,30.75
2022-11-25T16:30:23.785Z,31.55
2022-11-25T16:33:12.280Z,30.73
2022-11-25T16:35:57.471Z,32.72
2022-11-25T16:38:43.325Z,30.42
2022-11-25T16:41:29.882Z,29.73
2022-11-25T16:44:21.695Z,30.08
2022-11-25T16:47:10.654Z,30.00
2022-11-25T16:49:56.508Z,29.55
2022-11-25T16:52:42.456Z,28.48
2022-11-25T16:55:28.129Z,29.73
2022-11-25T16:58:24.248Z,27.50
2022-11-25T17:01:15.097Z,28.17
2022-11-25T17:04:00.903Z,28.30
2022-11-25T17:07:09.557Z,27.63
2022-11-25T17:09:51.937Z,26.15
2022-11-25T17:12:39.363Z,25.77
2022-11-25T17:15:32.332Z,24.20
2022-11-25T17:18:18.425Z,25.92
2022-11-25T17:21:04.003Z,27.67
2022-11-25T17:23:52.511Z,25.27
2022-11-25T17:26:42.816Z,27.08
2022-11-25T17:29:39.850Z,25.92
2022-11-25T17:32:26.411Z,26.02
2022-11-25T17:35:20.008Z,25.55
2022-11-25T17:38:13.071Z,24.95
2022-11-25T17:40:58.193Z,24.05
2022-11-25T17:43:44.747Z,23.55
2022-11-25T17:46:29.978Z,22.77
2022-11-25T17:49:15.606Z,22.67
2022-11-25T17:52:01.118Z,25.25
2022-11-25T17:54:46.503Z,24.95
2022-11-25T17:57:31.772Z,24.42
2022-11-25T18:00:20.386Z,25.50
2022-11-25T18:03:11.946Z,24.90
2022-11-25T18:05:57.615Z,26.42
2022-11-25T18:08:43.165Z,26.27
2022-11-25T18:11:28.401Z,26.38
2022-11-25T18:14:24.993Z,26.38
2022-11-25T18:17:16.544Z,26.85
2022-11-25T18:20:19.578Z,27.27
2022-11-25T18:23:04.717Z,28.10
2022-11-25T18:25:51.450Z,27.80
2022-11-25T18:28:37.578Z,28.58
2022-11-25T18:31:23.628Z,29.15
2022-11-25T18:34:16.154Z,28.13
2022-11-25T18:37:03.084Z,28.20
2022-11-25T18:39:48.169Z,27.20
2022-11-25T18:42:33.609Z,27.50
2022-11-25T18:45:36.576Z,26.25
2022-11-25T18:48:24.299Z,30.88
2022-11-25T18:51:12.095Z,30.50
2022-11-25T18:53:57.439Z,31.42
2022-11-25T18:56:43.527Z,25.95
2022-11-25T18:59:36.039Z,25.98
2022-11-25T19:02:21.395Z,24.88
2022-11-25T19:05:19.038Z,25.65
2022-11-25T19:08:04.673Z,25.48
2022-11-25T19:10:51.050Z,25.52
2022-11-25T19:13:37.029Z,23.95
2022-11-25T19:16:23.315Z,23.30
2022-11-25T19:19:14.175Z,23.77
2022-11-25T19:22:01.311Z,24.90
2022-11-25T19:24:46.881Z,24.42
2022-11-25T19:27:35.670Z,24.27
2022-11-25T19:30:24.370Z,26.00
2022-11-25T19:33:43.623Z,26.48
2022-11-25T19:36:32.012Z,22.90
2022-11-25T19:39:20.876Z,23.10
2022-11-25T19:42:06.401Z,21.70
2022-11-25T19:44:52.864Z,17.75
2022-11-25T19:47:38.140Z,17.63
2022-11-25T19:50:26.199Z,17.23
2022-11-25T19:53:22.179Z,18.92
2022-11-25T19:56:15.865Z,20.15
2022-11-25T19:59:01.074Z,18.23
2022-11-25T20:01:46.859Z,16.80
2022-11-25T20:04:31.786Z,16.42
2022-11-25T20:07:20.309Z,17.38
2022-11-25T20:10:19.841Z,16.38
2022-11-25T20:15:53.521Z,15.55
2022-11-25T20:18:39.357Z,15.35
2022-11-25T20:21:32.584Z,14.30
2022-11-25T20:24:19.741Z,16.00
2022-11-25T20:27:04.612Z,15.32
2022-11-25T20:29:49.929Z,18.35
2022-11-25T20:32:35.456Z,17.73
2022-11-25T20:35:22.485Z,17.27
2022-11-25T20:38:16.625Z,16.80
2022-11-25T20:41:02.319Z,16.40
2022-11-25T20:43:49.532Z,16.83
2022-11-25T20:46:34.679Z,17.13
2022-11-25T20:49:23.659Z,17.75
2022-11-25T20:52:18.940Z,15.95
2022-11-25T20:55:14.715Z,17.33
2022-11-25T20:57:59.913Z,17.92
2022-11-25T21:00:45.283Z,17.20
2022-11-25T21:03:30.380Z,16.65
2022-11-25T21:06:27.437Z,15.43
2022-11-25T21:09:23.327Z,15.10
2022-11-25T21:12:18.930Z,14.68
2022-11-25T21:15:13.355Z,14.35
2022-11-25T21:17:59.571Z,15.13
2022-11-25T21:20:45.095Z,14.73
2022-11-25T21:23:36.346Z,13.85
2022-11-25T21:26:25.483Z,14.57
2022-11-25T21:29:15.473Z,14.27
2022-11-25T21:32:00.590Z,14.48
2022-11-25T21:34:46.152Z,13.15
2022-11-25T21:37:38.121Z,14.05
2022-11-25T21:40:42.449Z,13.38
2022-11-25T21:43:32.387Z,13.40
2022-11-25T21:46:20.379Z,13.65
2022-11-25T21:49:11.538Z,14.02
2022-11-25T21:51:56.702Z,13.48
2022-11-25T21:54:42.226Z,12.98
2022-11-25T21:57:29.200Z,13.35
2022-11-25T22:00:32.507Z,13.90
2022-11-25T22:03:19.604Z,14.35
2022-11-25T22:06:16.247Z,13.02
2022-11-25T22:09:01.478Z,14.77
2022-11-25T22:11:50.177Z,15.00
2022-11-25T22:14:37.252Z,14.63
2022-11-25T22:17:23.014Z,14.10
2022-11-25T22:20:30.861Z,16.67
2022-11-25T22:23:19.389Z,14.73
2022-11-25T22:26:05.326Z,15.23
2022-11-25T22:28:51.946Z,14.65
2022-11-25T22:31:37.424Z,14.48
2022-11-25T22:34:24.367Z,14.52
2022-11-25T22:37:18.080Z,14.48
2022-11-25T22:40:03.206Z,15.02
2022-11-25T22:42:51.108Z,14.68
2022-11-25T22:45:36.674Z,14.50
2022-11-25T22:48:29.962Z,14.63
2022-11-25T22:51:19.959Z,14.98
2022-11-25T22:54:11.374Z,14.57
2022-11-25T22:56:57.162Z,13.85
2022-11-25T22:59:43.259Z,13.68
2022-11-25T23:02:34.150Z,13.80
2022-11-25T23:05:32.200Z,13.82
2022-11-25T23:08:23.955Z,12.25
2022-11-25T23:11:17.395Z,13.25
2022-11-25T23:14:03.075Z,13.77
2022-11-25T23:16:48.565Z,13.63
2022-11-25T23:19:33.945Z,15.00
2022-11-25T23:22:19.677Z,15.55
2022-11-25T23:25:11.697Z,16.42
2022-11-25T23:27:56.986Z,16.65
2022-11-25T23:31:02.967Z,17.90
2022-11-25T23:33:50.046Z,17.55
2022-11-25T23:36:48.178Z,20.02
2022-11-25T23:39:36.604Z,20.90
2022-11-25T23:42:21.548Z,20.20
2022-11-25T23:45:09.633Z,21.17
2022-11-25T23:47:56.824Z,20.45
2022-11-25T23:50:42.294Z,24.00
2022-11-25T23:53:33.117Z,22.23
2022-11-25T23:56:19.032Z,21.90
2022-11-25T23:59:11.946Z,22.70
